sensor_id;sensor_type;location;lat;lon;timestamp;P1;durP1;ratioP1;P2;durP2;ratioP2
52730;SDS011;38624;53.242;6.974;2023-04-03T00:01:14;3.92;;;1.35;;
52730;SDS011;38624;53.242;6.974;2023-04-03T00:03:40;2.40;;;1.17;;
52730;SDS011;38624;53.242;6.974;2023-04-03T00:06:07;5.78;;;1.45;;
52730;SDS011;38624;53.242;6.974;2023-04-03T00:08:35;3.20;;;1.08;;
52730;SDS011;38624;53.242;6.974;2023-04-03T00:11:01;3.05;;;1.10;;
52730;SDS011;38624;53.242;6.974;2023-04-03T00:13:28;1.60;;;1.13;;
52730;SDS011;38624;53.242;6.974;2023-04-03T00:15:54;4.00;;;1.40;;
52730;SDS011;38624;53.242;6.974;2023-04-03T00:18:20;6.25;;;1.30;;
52730;SDS011;38624;53.242;6.974;2023-04-03T00:20:47;2.80;;;1.27;;
52730;SDS011;38624;53.242;6.974;2023-04-03T00:23:13;2.58;;;1.20;;
52730;SDS011;38624;53.242;6.974;2023-04-03T00:25:39;2.78;;;1.30;;
52730;SDS011;38624;53.242;6.974;2023-04-03T00:28:04;4.63;;;1.35;;
52730;SDS011;38624;53.242;6.974;2023-04-03T00:30:30;4.00;;;1.60;;
52730;SDS011;38624;53.242;6.974;2023-04-03T00:32:57;5.20;;;1.42;;
52730;SDS011;38624;53.242;6.974;2023-04-03T00:35:23;5.55;;;1.38;;
52730;SDS011;38624;53.242;6.974;2023-04-03T00:37:52;4.65;;;1.48;;
52730;SDS011;38624;53.242;6.974;2023-04-03T00:40:20;5.07;;;1.58;;
52730;SDS011;38624;53.242;6.974;2023-04-03T00:42:48;5.18;;;1.40;;
52730;SDS011;38624;53.242;6.974;2023-04-03T00:48:21;3.93;;;1.50;;
52730;SDS011;38624;53.242;6.974;2023-04-03T00:50:50;4.13;;;1.73;;
52730;SDS011;38624;53.242;6.974;2023-04-03T00:53:18;7.07;;;1.70;;
52730;SDS011;38624;53.242;6.974;2023-04-03T00:55:48;4.20;;;1.30;;
52730;SDS011;38624;53.242;6.974;2023-04-03T00:58:16;3.42;;;1.52;;
52730;SDS011;38624;53.242;6.974;2023-04-03T01:00:46;6.68;;;1.75;;
52730;SDS011;38624;53.242;6.974;2023-04-03T01:03:21;4.00;;;1.50;;
52730;SDS011;38624;53.242;6.974;2023-04-03T01:05:47;4.10;;;1.50;;
52730;SDS011;38624;53.242;6.974;2023-04-03T01:08:13;6.13;;;1.80;;
52730;SDS011;38624;53.242;6.974;2023-04-03T01:10:38;4.50;;;1.48;;
52730;SDS011;38624;53.242;6.974;2023-04-03T01:13:17;5.57;;;1.58;;
52730;SDS011;38624;53.242;6.974;2023-04-03T01:16:04;5.05;;;1.45;;
52730;SDS011;38624;53.242;6.974;2023-04-03T01:18:30;5.80;;;1.23;;
52730;SDS011;38624;53.242;6.974;2023-04-03T01:26:35;4.40;;;1.63;;
52730;SDS011;38624;53.242;6.974;2023-04-03T01:29:01;3.53;;;1.80;;
52730;SDS011;38624;53.242;6.974;2023-04-03T01:34:00;4.10;;;1.67;;
52730;SDS011;38624;53.242;6.974;2023-04-03T01:38:54;4.72;;;1.45;;
52730;SDS011;38624;53.242;6.974;2023-04-03T01:41:21;4.63;;;1.42;;
52730;SDS011;38624;53.242;6.974;2023-04-03T01:43:47;5.63;;;2.08;;
52730;SDS011;38624;53.242;6.974;2023-04-03T01:46:14;5.03;;;1.40;;
52730;SDS011;38624;53.242;6.974;2023-04-03T01:48:41;5.07;;;1.60;;
52730;SDS011;38624;53.242;6.974;2023-04-03T01:51:06;6.05;;;1.80;;
52730;SDS011;38624;53.242;6.974;2023-04-03T01:53:32;4.25;;;1.52;;
52730;SDS011;38624;53.242;6.974;2023-04-03T01:55:58;6.30;;;1.70;;
52730;SDS011;38624;53.242;6.974;2023-04-03T01:58:23;2.58;;;1.42;;
52730;SDS011;38624;53.242;6.974;2023-04-03T02:00:50;4.70;;;1.60;;
52730;SDS011;38624;53.242;6.974;2023-04-03T02:03:16;6.95;;;1.90;;
52730;SDS011;38624;53.242;6.974;2023-04-03T02:05:42;5.47;;;1.55;;
52730;SDS011;38624;53.242;6.974;2023-04-03T02:08:08;5.65;;;1.77;;
52730;SDS011;38624;53.242;6.974;2023-04-03T02:10:33;6.38;;;1.80;;
52730;SDS011;38624;53.242;6.974;2023-04-03T02:12:59;5.00;;;1.92;;
52730;SDS011;38624;53.242;6.974;2023-04-03T02:15:25;5.53;;;1.70;;
52730;SDS011;38624;53.242;6.974;2023-04-03T02:17:51;4.15;;;1.50;;
52730;SDS011;38624;53.242;6.974;2023-04-03T02:20:17;3.87;;;1.67;;
52730;SDS011;38624;53.242;6.974;2023-04-03T02:22:43;5.53;;;1.67;;
52730;SDS011;38624;53.242;6.974;2023-04-03T02:25:08;4.53;;;1.70;;
52730;SDS011;38624;53.242;6.974;2023-04-03T02:27:35;5.85;;;1.63;;
52730;SDS011;38624;53.242;6.974;2023-04-03T02:30:01;3.17;;;1.70;;
52730;SDS011;38624;53.242;6.974;2023-04-03T02:32:28;3.92;;;1.90;;
52730;SDS011;38624;53.242;6.974;2023-04-03T02:34:54;5.13;;;1.70;;
52730;SDS011;38624;53.242;6.974;2023-04-03T02:37:20;6.85;;;2.08;;
52730;SDS011;38624;53.242;6.974;2023-04-03T02:39:46;3.75;;;1.70;;
52730;SDS011;38624;53.242;6.974;2023-04-03T02:42:12;5.38;;;1.85;;
52730;SDS011;38624;53.242;6.974;2023-04-03T02:44:37;3.83;;;1.50;;
52730;SDS011;38624;53.242;6.974;2023-04-03T02:47:04;6.68;;;1.80;;
52730;SDS011;38624;53.242;6.974;2023-04-03T02:49:30;9.65;;;2.10;;
52730;SDS011;38624;53.242;6.974;2023-04-03T02:51:56;5.88;;;1.90;;
52730;SDS011;38624;53.242;6.974;2023-04-03T02:54:22;6.97;;;1.85;;
52730;SDS011;38624;53.242;6.974;2023-04-03T02:56:48;4.47;;;1.75;;
52730;SDS011;38624;53.242;6.974;2023-04-03T02:59:14;4.18;;;1.73;;
52730;SDS011;38624;53.242;6.974;2023-04-03T03:01:40;5.82;;;1.92;;
52730;SDS011;38624;53.242;6.974;2023-04-03T03:04:06;7.38;;;1.80;;
52730;SDS011;38624;53.242;6.974;2023-04-03T03:06:31;5.53;;;1.80;;
52730;SDS011;38624;53.242;6.974;2023-04-03T03:08:57;5.47;;;1.60;;
52730;SDS011;38624;53.242;6.974;2023-04-03T03:11:23;4.38;;;1.77;;
52730;SDS011;38624;53.242;6.974;2023-04-03T03:13:48;3.78;;;1.67;;
52730;SDS011;38624;53.242;6.974;2023-04-03T03:16:15;5.27;;;1.73;;
52730;SDS011;38624;53.242;6.974;2023-04-03T03:18:40;5.43;;;1.75;;
52730;SDS011;38624;53.242;6.974;2023-04-03T03:21:06;5.78;;;1.90;;
52730;SDS011;38624;53.242;6.974;2023-04-03T03:23:32;6.97;;;2.05;;
52730;SDS011;38624;53.242;6.974;2023-04-03T03:26:02;6.10;;;2.00;;
52730;SDS011;38624;53.242;6.974;2023-04-03T03:28:30;4.50;;;1.90;;
52730;SDS011;38624;53.242;6.974;2023-04-03T03:30:59;4.72;;;1.92;;
52730;SDS011;38624;53.242;6.974;2023-04-03T03:33:25;5.63;;;2.05;;
52730;SDS011;38624;53.242;6.974;2023-04-03T03:35:52;4.57;;;1.95;;
52730;SDS011;38624;53.242;6.974;2023-04-03T03:38:18;9.18;;;2.50;;
52730;SDS011;38624;53.242;6.974;2023-04-03T03:40:44;7.68;;;2.30;;
52730;SDS011;38624;53.242;6.974;2023-04-03T03:43:12;5.20;;;2.20;;
52730;SDS011;38624;53.242;6.974;2023-04-03T03:45:38;6.00;;;2.27;;
52730;SDS011;38624;53.242;6.974;2023-04-03T03:48:04;5.60;;;1.88;;
52730;SDS011;38624;53.242;6.974;2023-04-03T03:50:29;4.40;;;1.90;;
52730;SDS011;38624;53.242;6.974;2023-04-03T03:52:55;9.03;;;2.20;;
52730;SDS011;38624;53.242;6.974;2023-04-03T03:55:21;5.03;;;2.27;;
52730;SDS011;38624;53.242;6.974;2023-04-03T03:57:47;5.40;;;1.80;;
52730;SDS011;38624;53.242;6.974;2023-04-03T04:00:12;8.90;;;2.17;;
52730;SDS011;38624;53.242;6.974;2023-04-03T04:02:38;5.13;;;1.80;;
52730;SDS011;38624;53.242;6.974;2023-04-03T04:05:04;5.80;;;2.00;;
52730;SDS011;38624;53.242;6.974;2023-04-03T04:07:30;4.88;;;2.25;;
52730;SDS011;38624;53.242;6.974;2023-04-03T04:09:56;4.17;;;1.80;;
52730;SDS011;38624;53.242;6.974;2023-04-03T04:12:21;4.87;;;2.00;;
52730;SDS011;38624;53.242;6.974;2023-04-03T04:14:47;5.60;;;1.90;;
52730;SDS011;38624;53.242;6.974;2023-04-03T04:17:13;7.40;;;2.30;;
52730;SDS011;38624;53.242;6.974;2023-04-03T04:19:39;9.40;;;2.40;;
52730;SDS011;38624;53.242;6.974;2023-04-03T04:22:05;6.43;;;2.43;;
52730;SDS011;38624;53.242;6.974;2023-04-03T04:24:31;7.87;;;2.43;;
52730;SDS011;38624;53.242;6.974;2023-04-03T04:26:56;4.53;;;2.10;;
52730;SDS011;38624;53.242;6.974;2023-04-03T04:29:22;6.47;;;1.97;;
52730;SDS011;38624;53.242;6.974;2023-04-03T04:31:48;6.30;;;2.30;;
52730;SDS011;38624;53.242;6.974;2023-04-03T04:34:14;5.00;;;2.35;;
52730;SDS011;38624;53.242;6.974;2023-04-03T04:36:40;6.23;;;2.00;;
52730;SDS011;38624;53.242;6.974;2023-04-03T04:39:06;10.13;;;2.17;;
52730;SDS011;38624;53.242;6.974;2023-04-03T04:41:32;5.80;;;2.87;;
52730;SDS011;38624;53.242;6.974;2023-04-03T04:43:57;7.23;;;2.20;;
52730;SDS011;38624;53.242;6.974;2023-04-03T04:46:23;8.00;;;2.27;;
52730;SDS011;38624;53.242;6.974;2023-04-03T04:48:49;4.70;;;2.43;;
52730;SDS011;38624;53.242;6.974;2023-04-03T04:51:15;6.47;;;2.50;;
52730;SDS011;38624;53.242;6.974;2023-04-03T04:53:41;6.37;;;2.10;;
52730;SDS011;38624;53.242;6.974;2023-04-03T04:56:07;11.25;;;2.35;;
52730;SDS011;38624;53.242;6.974;2023-04-03T04:58:33;6.23;;;2.50;;
52730;SDS011;38624;53.242;6.974;2023-04-03T05:01:00;6.67;;;2.37;;
52730;SDS011;38624;53.242;6.974;2023-04-03T05:03:29;7.53;;;2.53;;
52730;SDS011;38624;53.242;6.974;2023-04-03T05:05:55;8.13;;;2.25;;
52730;SDS011;38624;53.242;6.974;2023-04-03T05:08:21;6.10;;;2.30;;
52730;SDS011;38624;53.242;6.974;2023-04-03T05:10:47;7.10;;;2.50;;
52730;SDS011;38624;53.242;6.974;2023-04-03T05:13:14;6.47;;;2.63;;
52730;SDS011;38624;53.242;6.974;2023-04-03T05:15:40;9.40;;;2.50;;
52730;SDS011;38624;53.242;6.974;2023-04-03T05:18:06;8.43;;;2.20;;
52730;SDS011;38624;53.242;6.974;2023-04-03T05:20:32;5.87;;;2.57;;
52730;SDS011;38624;53.242;6.974;2023-04-03T05:22:58;5.55;;;2.42;;
52730;SDS011;38624;53.242;6.974;2023-04-03T05:25:24;6.70;;;2.50;;
52730;SDS011;38624;53.242;6.974;2023-04-03T05:27:50;7.67;;;2.67;;
52730;SDS011;38624;53.242;6.974;2023-04-03T05:30:16;5.87;;;2.10;;
52730;SDS011;38624;53.242;6.974;2023-04-03T05:32:42;5.93;;;2.50;;
52730;SDS011;38624;53.242;6.974;2023-04-03T05:35:08;9.45;;;2.83;;
52730;SDS011;38624;53.242;6.974;2023-04-03T05:37:35;9.60;;;2.70;;
52730;SDS011;38624;53.242;6.974;2023-04-03T05:40:02;5.75;;;2.67;;
52730;SDS011;38624;53.242;6.974;2023-04-03T05:42:31;5.67;;;3.03;;
52730;SDS011;38624;53.242;6.974;2023-04-03T05:44:57;7.27;;;2.80;;
52730;SDS011;38624;53.242;6.974;2023-04-03T05:47:22;8.57;;;2.90;;
52730;SDS011;38624;53.242;6.974;2023-04-03T05:49:48;6.43;;;2.90;;
52730;SDS011;38624;53.242;6.974;2023-04-03T05:52:25;6.73;;;2.90;;
52730;SDS011;38624;53.242;6.974;2023-04-03T05:54:53;5.63;;;2.60;;
52730;SDS011;38624;53.242;6.974;2023-04-03T05:57:19;5.07;;;2.63;;
52730;SDS011;38624;53.242;6.974;2023-04-03T05:59:45;8.23;;;3.13;;
52730;SDS011;38624;53.242;6.974;2023-04-03T06:02:12;7.18;;;3.28;;
52730;SDS011;38624;53.242;6.974;2023-04-03T06:04:40;7.37;;;2.70;;
52730;SDS011;38624;53.242;6.974;2023-04-03T06:07:06;8.30;;;3.30;;
52730;SDS011;38624;53.242;6.974;2023-04-03T06:09:35;7.57;;;2.80;;
52730;SDS011;38624;53.242;6.974;2023-04-03T06:12:00;10.30;;;3.20;;
52730;SDS011;38624;53.242;6.974;2023-04-03T06:14:26;13.07;;;3.53;;
52730;SDS011;38624;53.242;6.974;2023-04-03T06:16:52;8.57;;;3.30;;
52730;SDS011;38624;53.242;6.974;2023-04-03T06:19:19;10.48;;;3.08;;
52730;SDS011;38624;53.242;6.974;2023-04-03T06:21:45;6.87;;;2.80;;
52730;SDS011;38624;53.242;6.974;2023-04-03T06:24:12;6.90;;;3.22;;
52730;SDS011;38624;53.242;6.974;2023-04-03T06:26:40;6.23;;;3.27;;
52730;SDS011;38624;53.242;6.974;2023-04-03T06:29:06;9.97;;;3.60;;
52730;SDS011;38624;53.242;6.974;2023-04-03T06:31:32;7.77;;;3.10;;
52730;SDS011;38624;53.242;6.974;2023-04-03T06:33:57;8.37;;;3.43;;
52730;SDS011;38624;53.242;6.974;2023-04-03T06:36:24;9.27;;;3.37;;
52730;SDS011;38624;53.242;6.974;2023-04-03T06:38:50;6.47;;;3.08;;
52730;SDS011;38624;53.242;6.974;2023-04-03T06:41:16;9.87;;;3.20;;
52730;SDS011;38624;53.242;6.974;2023-04-03T06:43:42;7.07;;;3.10;;
52730;SDS011;38624;53.242;6.974;2023-04-03T06:46:15;9.82;;;3.20;;
52730;SDS011;38624;53.242;6.974;2023-04-03T06:48:42;6.23;;;3.23;;
52730;SDS011;38624;53.242;6.974;2023-04-03T06:51:22;7.47;;;3.17;;
52730;SDS011;38624;53.242;6.974;2023-04-03T06:53:50;8.27;;;2.90;;
52730;SDS011;38624;53.242;6.974;2023-04-03T06:56:17;9.05;;;3.47;;
52730;SDS011;38624;53.242;6.974;2023-04-03T06:58:43;8.30;;;3.33;;
52730;SDS011;38624;53.242;6.974;2023-04-03T07:01:10;7.30;;;3.40;;
52730;SDS011;38624;53.242;6.974;2023-04-03T07:03:38;9.60;;;3.00;;
52730;SDS011;38624;53.242;6.974;2023-04-03T07:06:04;6.83;;;3.20;;
52730;SDS011;38624;53.242;6.974;2023-04-03T07:08:31;8.37;;;3.17;;
52730;SDS011;38624;53.242;6.974;2023-04-03T07:10:58;4.63;;;3.00;;
52730;SDS011;38624;53.242;6.974;2023-04-03T07:13:23;7.63;;;3.30;;
52730;SDS011;38624;53.242;6.974;2023-04-03T07:15:49;5.80;;;3.10;;
52730;SDS011;38624;53.242;6.974;2023-04-03T07:18:15;9.43;;;3.25;;
52730;SDS011;38624;53.242;6.974;2023-04-03T07:20:42;8.10;;;3.05;;
52730;SDS011;38624;53.242;6.974;2023-04-03T07:23:08;8.20;;;3.40;;
52730;SDS011;38624;53.242;6.974;2023-04-03T07:25:34;7.10;;;3.50;;
52730;SDS011;38624;53.242;6.974;2023-04-03T07:27:59;12.50;;;3.30;;
52730;SDS011;38624;53.242;6.974;2023-04-03T07:30:25;7.13;;;3.27;;
52730;SDS011;38624;53.242;6.974;2023-04-03T07:32:51;11.60;;;3.03;;
52730;SDS011;38624;53.242;6.974;2023-04-03T07:35:17;7.88;;;3.28;;
52730;SDS011;38624;53.242;6.974;2023-04-03T07:37:44;7.57;;;2.85;;
52730;SDS011;38624;53.242;6.974;2023-04-03T07:40:10;10.10;;;3.10;;
52730;SDS011;38624;53.242;6.974;2023-04-03T07:42:36;9.10;;;3.00;;
52730;SDS011;38624;53.242;6.974;2023-04-03T07:45:05;7.13;;;2.70;;
52730;SDS011;38624;53.242;6.974;2023-04-03T07:47:31;7.33;;;3.37;;
52730;SDS011;38624;53.242;6.974;2023-04-03T07:49:57;6.18;;;3.00;;
52730;SDS011;38624;53.242;6.974;2023-04-03T07:52:23;11.60;;;2.80;;
52730;SDS011;38624;53.242;6.974;2023-04-03T07:54:49;6.90;;;2.70;;
52730;SDS011;38624;53.242;6.974;2023-04-03T07:57:15;10.55;;;2.90;;
52730;SDS011;38624;53.242;6.974;2023-04-03T07:59:41;8.23;;;2.67;;
52730;SDS011;38624;53.242;6.974;2023-04-03T08:02:11;7.45;;;2.97;;
52730;SDS011;38624;53.242;6.974;2023-04-03T08:04:37;9.77;;;2.50;;
52730;SDS011;38624;53.242;6.974;2023-04-03T08:07:03;5.90;;;2.45;;
52730;SDS011;38624;53.242;6.974;2023-04-03T08:09:29;8.00;;;2.63;;
52730;SDS011;38624;53.242;6.974;2023-04-03T08:11:56;9.20;;;2.85;;
52730;SDS011;38624;53.242;6.974;2023-04-03T08:14:22;6.53;;;2.40;;
52730;SDS011;38624;53.242;6.974;2023-04-03T08:16:48;5.75;;;2.10;;
52730;SDS011;38624;53.242;6.974;2023-04-03T08:19:15;4.93;;;1.73;;
52730;SDS011;38624;53.242;6.974;2023-04-03T08:21:43;3.47;;;1.80;;
52730;SDS011;38624;53.242;6.974;2023-04-03T08:24:10;5.40;;;1.90;;
52730;SDS011;38624;53.242;6.974;2023-04-03T08:26:36;6.38;;;2.17;;
52730;SDS011;38624;53.242;6.974;2023-04-03T08:29:02;3.78;;;2.03;;
52730;SDS011;38624;53.242;6.974;2023-04-03T08:31:28;6.00;;;2.13;;
52730;SDS011;38624;53.242;6.974;2023-04-03T08:33:54;7.82;;;2.30;;
52730;SDS011;38624;53.242;6.974;2023-04-03T08:36:22;6.00;;;2.25;;
52730;SDS011;38624;53.242;6.974;2023-04-03T08:38:53;7.25;;;2.15;;
52730;SDS011;38624;53.242;6.974;2023-04-03T08:41:29;5.53;;;1.90;;
52730;SDS011;38624;53.242;6.974;2023-04-03T08:49:28;5.07;;;2.00;;
52730;SDS011;38624;53.242;6.974;2023-04-03T08:52:04;4.13;;;1.80;;
52730;SDS011;38624;53.242;6.974;2023-04-03T08:54:49;6.55;;;2.08;;
52730;SDS011;38624;53.242;6.974;2023-04-03T08:57:28;3.75;;;1.75;;
52730;SDS011;38624;53.242;6.974;2023-04-03T08:59:54;6.18;;;2.00;;
52730;SDS011;38624;53.242;6.974;2023-04-03T09:02:41;4.93;;;1.70;;
52730;SDS011;38624;53.242;6.974;2023-04-03T09:05:32;5.32;;;1.60;;
52730;SDS011;38624;53.242;6.974;2023-04-03T09:10:40;5.63;;;1.90;;
52730;SDS011;38624;53.242;6.974;2023-04-03T09:13:19;6.35;;;2.35;;
52730;SDS011;38624;53.242;6.974;2023-04-03T09:15:56;4.50;;;1.67;;
52730;SDS011;38624;53.242;6.974;2023-04-03T09:18:30;6.60;;;1.73;;
52730;SDS011;38624;53.242;6.974;2023-04-03T09:23:42;5.57;;;1.75;;
52730;SDS011;38624;53.242;6.974;2023-04-03T09:29:20;4.10;;;1.60;;
52730;SDS011;38624;53.242;6.974;2023-04-03T09:31:49;4.85;;;1.40;;
52730;SDS011;38624;53.242;6.974;2023-04-03T09:36:48;2.88;;;1.27;;
52730;SDS011;38624;53.242;6.974;2023-04-03T09:39:15;3.15;;;1.52;;
52730;SDS011;38624;53.242;6.974;2023-04-03T09:42:01;2.95;;;1.40;;
52730;SDS011;38624;53.242;6.974;2023-04-03T09:44:39;2.78;;;1.40;;
52730;SDS011;38624;53.242;6.974;2023-04-03T09:52:39;5.32;;;1.65;;
52730;SDS011;38624;53.242;6.974;2023-04-03T09:57:54;5.93;;;1.48;;
52730;SDS011;38624;53.242;6.974;2023-04-03T10:00:25;2.95;;;1.20;;
52730;SDS011;38624;53.242;6.974;2023-04-03T10:02:56;3.78;;;1.48;;
52730;SDS011;38624;53.242;6.974;2023-04-03T10:07:51;3.85;;;1.30;;
52730;SDS011;38624;53.242;6.974;2023-04-03T10:10:20;3.63;;;1.35;;
52730;SDS011;38624;53.242;6.974;2023-04-03T10:13:35;3.53;;;1.27;;
52730;SDS011;38624;53.242;6.974;2023-04-03T10:15:46;3.22;;;1.30;;
52730;SDS011;38624;53.242;6.974;2023-04-03T10:20:53;4.60;;;1.10;;
52730;SDS011;38624;53.242;6.974;2023-04-03T10:23:26;2.67;;;1.02;;
52730;SDS011;38624;53.242;6.974;2023-04-03T10:26:10;3.20;;;1.13;;
52730;SDS011;38624;53.242;6.974;2023-04-03T10:34:37;3.90;;;1.55;;
52730;SDS011;38624;53.242;6.974;2023-04-03T10:40:02;3.85;;;1.40;;
52730;SDS011;38624;53.242;6.974;2023-04-03T10:43:09;4.20;;;1.40;;
52730;SDS011;38624;53.242;6.974;2023-04-03T10:46:11;3.75;;;1.20;;
52730;SDS011;38624;53.242;6.974;2023-04-03T10:51:28;5.15;;;1.30;;
52730;SDS011;38624;53.242;6.974;2023-04-03T10:54:05;3.22;;;1.30;;
52730;SDS011;38624;53.242;6.974;2023-04-03T10:56:56;2.70;;;1.23;;
52730;SDS011;38624;53.242;6.974;2023-04-03T10:59:38;2.13;;;1.08;;
52730;SDS011;38624;53.242;6.974;2023-04-03T11:02:33;3.25;;;1.05;;
52730;SDS011;38624;53.242;6.974;2023-04-03T11:05:02;4.32;;;1.10;;
52730;SDS011;38624;53.242;6.974;2023-04-03T11:07:51;3.55;;;1.27;;
52730;SDS011;38624;53.242;6.974;2023-04-03T11:10:35;1.65;;;0.90;;
52730;SDS011;38624;53.242;6.974;2023-04-03T11:15:54;7.03;;;1.05;;
52730;SDS011;38624;53.242;6.974;2023-04-03T11:18:25;3.67;;;1.08;;
52730;SDS011;38624;53.242;6.974;2023-04-03T11:21:04;2.80;;;1.00;;
52730;SDS011;38624;53.242;6.974;2023-04-03T11:23:51;1.80;;;1.00;;
52730;SDS011;38624;53.242;6.974;2023-04-03T11:26:22;2.45;;;1.00;;
52730;SDS011;38624;53.242;6.974;2023-04-03T11:29:06;1.73;;;0.90;;
52730;SDS011;38624;53.242;6.974;2023-04-03T11:40:05;3.20;;;1.05;;
52730;SDS011;38624;53.242;6.974;2023-04-03T11:42:47;2.00;;;0.98;;
52730;SDS011;38624;53.242;6.974;2023-04-03T11:48:02;2.13;;;0.95;;
52730;SDS011;38624;53.242;6.974;2023-04-03T11:50:31;3.05;;;0.95;;
52730;SDS011;38624;53.242;6.974;2023-04-03T11:58:15;3.78;;;1.20;;
52730;SDS011;38624;53.242;6.974;2023-04-03T12:00:50;2.15;;;1.05;;
52730;SDS011;38624;53.242;6.974;2023-04-03T12:13:39;4.80;;;1.50;;
52730;SDS011;38624;53.242;6.974;2023-04-03T12:16:19;2.40;;;0.95;;
52730;SDS011;38624;53.242;6.974;2023-04-03T12:21:14;2.28;;;0.90;;
52730;SDS011;38624;53.242;6.974;2023-04-03T12:23:58;1.63;;;0.80;;
52730;SDS011;38624;53.242;6.974;2023-04-03T12:29:27;2.83;;;1.00;;
52730;SDS011;38624;53.242;6.974;2023-04-03T12:34:38;1.80;;;0.80;;
52730;SDS011;38624;53.242;6.974;2023-04-03T12:47:54;1.55;;;0.90;;
52730;SDS011;38624;53.242;6.974;2023-04-03T12:53:02;2.67;;;0.80;;
52730;SDS011;38624;53.242;6.974;2023-04-03T12:55:29;2.03;;;0.90;;
52730;SDS011;38624;53.242;6.974;2023-04-03T12:57:55;3.65;;;0.90;;
52730;SDS011;38624;53.242;6.974;2023-04-03T13:02:51;1.70;;;0.80;;
52730;SDS011;38624;53.242;6.974;2023-04-03T13:05:18;2.97;;;0.82;;
52730;SDS011;38624;53.242;6.974;2023-04-03T13:08:05;1.63;;;0.77;;
52730;SDS011;38624;53.242;6.974;2023-04-03T13:10:43;1.95;;;0.90;;
52730;SDS011;38624;53.242;6.974;2023-04-03T13:13:21;1.52;;;0.90;;
52730;SDS011;38624;53.242;6.974;2023-04-03T13:15:48;1.70;;;1.00;;
52730;SDS011;38624;53.242;6.974;2023-04-03T13:18:29;1.25;;;0.90;;
52730;SDS011;38624;53.242;6.974;2023-04-03T13:20:58;2.47;;;1.00;;
52730;SDS011;38624;53.242;6.974;2023-04-03T13:23:46;1.10;;;0.90;;
52730;SDS011;38624;53.242;6.974;2023-04-03T13:26:15;3.38;;;1.00;;
52730;SDS011;38624;53.242;6.974;2023-04-03T13:28:44;1.95;;;0.95;;
52730;SDS011;38624;53.242;6.974;2023-04-03T13:33:39;2.60;;;0.85;;
52730;SDS011;38624;53.242;6.974;2023-04-03T13:36:44;1.83;;;0.70;;
52730;SDS011;38624;53.242;6.974;2023-04-03T13:41:49;3.22;;;0.90;;
52730;SDS011;38624;53.242;6.974;2023-04-03T13:46:55;2.15;;;0.70;;
52730;SDS011;38624;53.242;6.974;2023-04-03T13:49:37;1.50;;;0.80;;
52730;SDS011;38624;53.242;6.974;2023-04-03T14:06:16;3.10;;;0.80;;
52730;SDS011;38624;53.242;6.974;2023-04-03T14:08:43;2.13;;;0.90;;
52730;SDS011;38624;53.242;6.974;2023-04-03T14:11:21;3.95;;;0.82;;
52730;SDS011;38624;53.242;6.974;2023-04-03T14:13:53;2.20;;;1.05;;
52730;SDS011;38624;53.242;6.974;2023-04-03T14:16:21;1.75;;;0.82;;
52730;SDS011;38624;53.242;6.974;2023-04-03T14:18:50;1.75;;;0.77;;
52730;SDS011;38624;53.242;6.974;2023-04-03T14:21:18;1.67;;;0.90;;
52730;SDS011;38624;53.242;6.974;2023-04-03T14:23:44;2.35;;;0.95;;
52730;SDS011;38624;53.242;6.974;2023-04-03T14:26:14;1.83;;;1.00;;
52730;SDS011;38624;53.242;6.974;2023-04-03T14:28:47;1.58;;;0.90;;
52730;SDS011;38624;53.242;6.974;2023-04-03T14:31:14;2.42;;;1.00;;
52730;SDS011;38624;53.242;6.974;2023-04-03T14:33:41;2.45;;;1.27;;
52730;SDS011;38624;53.242;6.974;2023-04-03T14:36:25;2.03;;;1.00;;
52730;SDS011;38624;53.242;6.974;2023-04-03T14:38:53;2.20;;;1.10;;
52730;SDS011;38624;53.242;6.974;2023-04-03T14:41:21;2.03;;;1.10;;
52730;SDS011;38624;53.242;6.974;2023-04-03T14:43:49;2.60;;;1.00;;
52730;SDS011;38624;53.242;6.974;2023-04-03T14:46:16;1.90;;;0.90;;
52730;SDS011;38624;53.242;6.974;2023-04-03T14:48:51;1.63;;;0.80;;
52730;SDS011;38624;53.242;6.974;2023-04-03T14:51:17;1.88;;;0.93;;
52730;SDS011;38624;53.242;6.974;2023-04-03T14:53:43;2.50;;;1.05;;
52730;SDS011;38624;53.242;6.974;2023-04-03T14:56:21;2.05;;;1.10;;
52730;SDS011;38624;53.242;6.974;2023-04-03T14:58:51;2.22;;;0.90;;
52730;SDS011;38624;53.242;6.974;2023-04-03T15:01:21;1.90;;;0.70;;
52730;SDS011;38624;53.242;6.974;2023-04-03T15:03:47;2.10;;;0.98;;
52730;SDS011;38624;53.242;6.974;2023-04-03T15:06:13;1.48;;;0.80;;
52730;SDS011;38624;53.242;6.974;2023-04-03T15:08:39;2.22;;;0.80;;
52730;SDS011;38624;53.242;6.974;2023-04-03T15:11:07;1.38;;;0.70;;
52730;SDS011;38624;53.242;6.974;2023-04-03T15:15:59;1.52;;;0.60;;
52730;SDS011;38624;53.242;6.974;2023-04-03T15:18:26;1.33;;;0.63;;
52730;SDS011;38624;53.242;6.974;2023-04-03T15:20:53;2.88;;;0.95;;
52730;SDS011;38624;53.242;6.974;2023-04-03T15:23:20;1.35;;;0.70;;
52730;SDS011;38624;53.242;6.974;2023-04-03T15:25:50;1.02;;;0.65;;
52730;SDS011;38624;53.242;6.974;2023-04-03T15:28:30;3.08;;;0.80;;
52730;SDS011;38624;53.242;6.974;2023-04-03T15:31:02;1.73;;;0.80;;
52730;SDS011;38624;53.242;6.974;2023-04-03T15:33:29;2.35;;;0.80;;
52730;SDS011;38624;53.242;6.974;2023-04-03T15:35:55;1.25;;;0.73;;
52730;SDS011;38624;53.242;6.974;2023-04-03T15:38:21;1.67;;;0.85;;
52730;SDS011;38624;53.242;6.974;2023-04-03T15:40:46;3.28;;;0.82;;
52730;SDS011;38624;53.242;6.974;2023-04-03T15:43:12;2.67;;;0.70;;
52730;SDS011;38624;53.242;6.974;2023-04-03T15:45:39;2.00;;;0.70;;
52730;SDS011;38624;53.242;6.974;2023-04-03T15:48:05;2.45;;;0.90;;
52730;SDS011;38624;53.242;6.974;2023-04-03T15:50:32;1.70;;;0.90;;
52730;SDS011;38624;53.242;6.974;2023-04-03T15:52:59;3.13;;;1.20;;
52730;SDS011;38624;53.242;6.974;2023-04-03T15:55:27;2.33;;;1.00;;
52730;SDS011;38624;53.242;6.974;2023-04-03T15:57:54;1.52;;;0.70;;
52730;SDS011;38624;53.242;6.974;2023-04-03T16:00:21;3.15;;;0.90;;
52730;SDS011;38624;53.242;6.974;2023-04-03T16:02:48;1.58;;;0.80;;
52730;SDS011;38624;53.242;6.974;2023-04-03T16:05:19;1.45;;;0.70;;
52730;SDS011;38624;53.242;6.974;2023-04-03T16:07:45;2.35;;;0.90;;
52730;SDS011;38624;53.242;6.974;2023-04-03T16:10:13;2.97;;;1.27;;
52730;SDS011;38624;53.242;6.974;2023-04-03T16:12:40;2.00;;;1.08;;
52730;SDS011;38624;53.242;6.974;2023-04-03T16:15:06;3.42;;;1.20;;
52730;SDS011;38624;53.242;6.974;2023-04-03T16:17:33;3.83;;;1.20;;
52730;SDS011;38624;53.242;6.974;2023-04-03T16:20:00;4.22;;;2.10;;
52730;SDS011;38624;53.242;6.974;2023-04-03T16:22:27;2.25;;;1.00;;
52730;SDS011;38624;53.242;6.974;2023-04-03T16:24:53;3.15;;;1.20;;
52730;SDS011;38624;53.242;6.974;2023-04-03T16:27:19;2.08;;;1.10;;
52730;SDS011;38624;53.242;6.974;2023-04-03T16:32:11;2.45;;;1.50;;
52730;SDS011;38624;53.242;6.974;2023-04-03T16:34:38;3.80;;;1.42;;
52730;SDS011;38624;53.242;6.974;2023-04-03T16:37:05;2.58;;;1.40;;
52730;SDS011;38624;53.242;6.974;2023-04-03T16:39:33;2.20;;;1.30;;
52730;SDS011;38624;53.242;6.974;2023-04-03T16:42:00;2.30;;;1.40;;
52730;SDS011;38624;53.242;6.974;2023-04-03T16:44:26;3.15;;;1.02;;
52730;SDS011;38624;53.242;6.974;2023-04-03T16:46:52;3.00;;;1.08;;
52730;SDS011;38624;53.242;6.974;2023-04-03T16:49:18;2.65;;;1.20;;
52730;SDS011;38624;53.242;6.974;2023-04-03T16:51:43;2.38;;;1.10;;
52730;SDS011;38624;53.242;6.974;2023-04-03T16:54:10;4.35;;;1.20;;
52730;SDS011;38624;53.242;6.974;2023-04-03T16:56:38;3.92;;;1.30;;
52730;SDS011;38624;53.242;6.974;2023-04-03T16:59:04;3.33;;;1.70;;
52730;SDS011;38624;53.242;6.974;2023-04-03T17:01:30;3.15;;;1.70;;
52730;SDS011;38624;53.242;6.974;2023-04-03T17:03:56;3.92;;;0.98;;
52730;SDS011;38624;53.242;6.974;2023-04-03T17:06:22;3.53;;;1.33;;
52730;SDS011;38624;53.242;6.974;2023-04-03T17:08:49;4.68;;;1.35;;
52730;SDS011;38624;53.242;6.974;2023-04-03T17:11:17;2.58;;;1.20;;
52730;SDS011;38624;53.242;6.974;2023-04-03T17:13:43;4.13;;;1.60;;